sensor_id;sensor_type;location;lat;lon;timestamp;P1;durP1;ratioP1;P2;durP2;ratioP2
11582;SDS011;34299;50.820;4.548;2023-03-19T00:01:56;3.53;;;2.53;;
11582;SDS011;34299;50.820;4.548;2023-03-19T00:04:23;3.40;;;2.87;;
11582;SDS011;34299;50.820;4.548;2023-03-19T00:06:51;3.60;;;2.40;;
11582;SDS011;34299;50.820;4.548;2023-03-19T00:09:20;5.83;;;2.37;;
11582;SDS011;34299;50.820;4.548;2023-03-19T00:11:47;3.23;;;2.10;;
11582;SDS011;34299;50.820;4.548;2023-03-19T00:14:15;2.53;;;2.20;;
11582;SDS011;34299;50.820;4.548;2023-03-19T00:16:42;4.90;;;2.20;;
11582;SDS011;34299;50.820;4.548;2023-03-19T00:19:09;4.77;;;2.30;;
11582;SDS011;34299;50.820;4.548;2023-03-19T00:21:36;2.63;;;2.00;;
11582;SDS011;34299;50.820;4.548;2023-03-19T00:24:04;2.50;;;2.30;;
11582;SDS011;34299;50.820;4.548;2023-03-19T00:26:33;3.23;;;2.43;;
11582;SDS011;34299;50.820;4.548;2023-03-19T00:29:00;4.17;;;2.07;;
11582;SDS011;34299;50.820;4.548;2023-03-19T00:31:28;2.43;;;2.23;;
11582;SDS011;34299;50.820;4.548;2023-03-19T00:33:55;2.83;;;2.13;;
11582;SDS011;34299;50.820;4.548;2023-03-19T00:36:23;1.60;;;1.50;;
11582;SDS011;34299;50.820;4.548;2023-03-19T00:38:51;5.53;;;1.70;;
11582;SDS011;34299;50.820;4.548;2023-03-19T00:41:18;3.37;;;1.77;;
11582;SDS011;34299;50.820;4.548;2023-03-19T00:43:49;3.83;;;1.93;;
11582;SDS011;34299;50.820;4.548;2023-03-19T00:46:17;2.53;;;1.73;;
11582;SDS011;34299;50.820;4.548;2023-03-19T00:48:45;1.60;;;1.50;;
11582;SDS011;34299;50.820;4.548;2023-03-19T00:51:12;1.57;;;1.30;;
11582;SDS011;34299;50.820;4.548;2023-03-19T00:53:40;2.60;;;1.63;;
11582;SDS011;34299;50.820;4.548;2023-03-19T00:56:07;2.13;;;1.50;;
11582;SDS011;34299;50.820;4.548;2023-03-19T00:58:35;2.03;;;1.57;;
11582;SDS011;34299;50.820;4.548;2023-03-19T01:01:06;3.80;;;1.60;;
11582;SDS011;34299;50.820;4.548;2023-03-19T01:03:33;4.70;;;2.10;;
11582;SDS011;34299;50.820;4.548;2023-03-19T01:06:03;2.87;;;2.07;;
11582;SDS011;34299;50.820;4.548;2023-03-19T01:08:31;2.17;;;1.73;;
11582;SDS011;34299;50.820;4.548;2023-03-19T01:11:03;1.40;;;1.30;;
11582;SDS011;34299;50.820;4.548;2023-03-19T01:13:30;3.80;;;1.90;;
11582;SDS011;34299;50.820;4.548;2023-03-19T01:15:57;1.83;;;1.73;;
11582;SDS011;34299;50.820;4.548;2023-03-19T01:18:26;5.00;;;1.93;;
11582;SDS011;34299;50.820;4.548;2023-03-19T01:20:53;1.67;;;1.57;;
11582;SDS011;34299;50.820;4.548;2023-03-19T01:23:20;1.60;;;1.27;;
11582;SDS011;34299;50.820;4.548;2023-03-19T01:25:48;2.93;;;1.80;;
11582;SDS011;34299;50.820;4.548;2023-03-19T01:28:15;2.77;;;1.97;;
11582;SDS011;34299;50.820;4.548;2023-03-19T01:30:42;3.70;;;1.67;;
11582;SDS011;34299;50.820;4.548;2023-03-19T01:33:10;1.90;;;1.70;;
11582;SDS011;34299;50.820;4.548;2023-03-19T01:35:38;2.17;;;1.83;;
11582;SDS011;34299;50.820;4.548;2023-03-19T01:38:07;4.83;;;1.97;;
11582;SDS011;34299;50.820;4.548;2023-03-19T01:40:34;5.13;;;1.97;;
11582;SDS011;34299;50.820;4.548;2023-03-19T01:43:12;3.80;;;2.07;;
11582;SDS011;34299;50.820;4.548;2023-03-19T01:45:40;2.83;;;2.00;;
11582;SDS011;34299;50.820;4.548;2023-03-19T01:48:10;2.90;;;2.17;;
11582;SDS011;34299;50.820;4.548;2023-03-19T01:50:43;1.97;;;1.77;;
11582;SDS011;34299;50.820;4.548;2023-03-19T01:53:12;3.73;;;2.33;;
11582;SDS011;34299;50.820;4.548;2023-03-19T01:55:40;2.47;;;2.27;;
11582;SDS011;34299;50.820;4.548;2023-03-19T01:58:07;3.13;;;2.13;;
11582;SDS011;34299;50.820;4.548;2023-03-19T02:00:36;5.37;;;2.00;;
11582;SDS011;34299;50.820;4.548;2023-03-19T02:03:03;2.30;;;2.10;;
11582;SDS011;34299;50.820;4.548;2023-03-19T02:05:31;2.50;;;2.27;;
11582;SDS011;34299;50.820;4.548;2023-03-19T02:08:02;3.40;;;2.60;;
11582;SDS011;34299;50.820;4.548;2023-03-19T02:10:30;4.30;;;2.70;;
11582;SDS011;34299;50.820;4.548;2023-03-19T02:12:57;3.10;;;2.50;;
11582;SDS011;34299;50.820;4.548;2023-03-19T02:15:25;4.23;;;2.60;;
11582;SDS011;34299;50.820;4.548;2023-03-19T02:17:52;2.27;;;2.07;;
11582;SDS011;34299;50.820;4.548;2023-03-19T02:20:21;4.40;;;2.43;;
11582;SDS011;34299;50.820;4.548;2023-03-19T02:22:52;2.93;;;2.43;;
11582;SDS011;34299;50.820;4.548;2023-03-19T02:25:23;6.27;;;3.03;;
11582;SDS011;34299;50.820;4.548;2023-03-19T02:27:55;3.83;;;2.80;;
11582;SDS011;34299;50.820;4.548;2023-03-19T02:30:23;3.70;;;2.60;;
11582;SDS011;34299;50.820;4.548;2023-03-19T02:32:51;4.20;;;2.80;;
11582;SDS011;34299;50.820;4.548;2023-03-19T02:35:18;4.27;;;2.93;;
11582;SDS011;34299;50.820;4.548;2023-03-19T02:37:46;5.80;;;2.90;;
11582;SDS011;34299;50.820;4.548;2023-03-19T02:40:13;3.87;;;2.87;;
11582;SDS011;34299;50.820;4.548;2023-03-19T02:42:42;5.27;;;3.50;;
11582;SDS011;34299;50.820;4.548;2023-03-19T02:45:11;4.00;;;3.20;;
11582;SDS011;34299;50.820;4.548;2023-03-19T02:47:38;7.63;;;3.40;;
11582;SDS011;34299;50.820;4.548;2023-03-19T02:50:06;4.50;;;2.97;;
11582;SDS011;34299;50.820;4.548;2023-03-19T02:52:33;3.43;;;2.87;;
11582;SDS011;34299;50.820;4.548;2023-03-19T02:55:01;5.60;;;3.63;;
11582;SDS011;34299;50.820;4.548;2023-03-19T02:57:28;5.37;;;3.43;;
11582;SDS011;34299;50.820;4.548;2023-03-19T02:59:55;8.80;;;4.20;;
11582;SDS011;34299;50.820;4.548;2023-03-19T03:02:24;4.77;;;3.90;;
11582;SDS011;34299;50.820;4.548;2023-03-19T03:04:51;7.60;;;3.80;;
11582;SDS011;34299;50.820;4.548;2023-03-19T03:07:18;6.70;;;4.60;;
11582;SDS011;34299;50.820;4.548;2023-03-19T03:09:46;5.80;;;4.40;;
11582;SDS011;34299;50.820;4.548;2023-03-19T03:12:13;4.60;;;4.10;;
11582;SDS011;34299;50.820;4.548;2023-03-19T03:14:41;5.20;;;4.60;;
11582;SDS011;34299;50.820;4.548;2023-03-19T03:17:08;5.33;;;4.40;;
11582;SDS011;34299;50.820;4.548;2023-03-19T03:19:37;7.33;;;5.23;;
11582;SDS011;34299;50.820;4.548;2023-03-19T03:22:04;8.10;;;4.80;;
11582;SDS011;34299;50.820;4.548;2023-03-19T03:24:32;8.13;;;5.60;;
11582;SDS011;34299;50.820;4.548;2023-03-19T03:26:59;7.87;;;5.60;;
11582;SDS011;34299;50.820;4.548;2023-03-19T03:29:26;9.17;;;6.00;;
11582;SDS011;34299;50.820;4.548;2023-03-19T03:31:53;7.93;;;5.83;;
11582;SDS011;34299;50.820;4.548;2023-03-19T03:34:21;8.73;;;6.27;;
11582;SDS011;34299;50.820;4.548;2023-03-19T03:36:50;9.53;;;6.67;;
11582;SDS011;34299;50.820;4.548;2023-03-19T03:39:17;10.77;;;6.67;;
11582;SDS011;34299;50.820;4.548;2023-03-19T03:41:44;12.97;;;7.77;;
11582;SDS011;34299;50.820;4.548;2023-03-19T03:44:11;12.97;;;7.53;;
11582;SDS011;34299;50.820;4.548;2023-03-19T03:46:39;10.77;;;7.30;;
11582;SDS011;34299;50.820;4.548;2023-03-19T03:49:07;10.93;;;7.10;;
11582;SDS011;34299;50.820;4.548;2023-03-19T03:51:34;12.73;;;7.67;;
11582;SDS011;34299;50.820;4.548;2023-03-19T03:54:03;12.93;;;7.80;;
11582;SDS011;34299;50.820;4.548;2023-03-19T03:56:32;10.60;;;6.73;;
11582;SDS011;34299;50.820;4.548;2023-03-19T03:58:59;11.27;;;7.57;;
11582;SDS011;34299;50.820;4.548;2023-03-19T04:01:27;12.10;;;7.23;;
11582;SDS011;34299;50.820;4.548;2023-03-19T04:03:54;11.13;;;7.80;;
11582;SDS011;34299;50.820;4.548;2023-03-19T04:06:22;12.90;;;7.80;;
11582;SDS011;34299;50.820;4.548;2023-03-19T04:08:50;11.67;;;8.10;;
11582;SDS011;34299;50.820;4.548;2023-03-19T04:11:18;11.67;;;7.87;;
11582;SDS011;34299;50.820;4.548;2023-03-19T04:13:46;12.70;;;8.27;;
11582;SDS011;34299;50.820;4.548;2023-03-19T04:16:13;11.30;;;6.97;;
11582;SDS011;34299;50.820;4.548;2023-03-19T04:18:40;10.93;;;8.00;;
11582;SDS011;34299;50.820;4.548;2023-03-19T04:21:07;11.87;;;8.50;;
11582;SDS011;34299;50.820;4.548;2023-03-19T04:23:35;9.53;;;6.97;;
11582;SDS011;34299;50.820;4.548;2023-03-19T04:26:03;10.10;;;6.50;;
11582;SDS011;34299;50.820;4.548;2023-03-19T04:28:32;9.07;;;6.47;;
11582;SDS011;34299;50.820;4.548;2023-03-19T04:30:59;12.50;;;6.70;;
11582;SDS011;34299;50.820;4.548;2023-03-19T04:33:27;10.07;;;7.20;;
11582;SDS011;34299;50.820;4.548;2023-03-19T04:35:55;10.43;;;7.53;;
11582;SDS011;34299;50.820;4.548;2023-03-19T04:38:23;9.63;;;5.77;;
11582;SDS011;34299;50.820;4.548;2023-03-19T04:40:51;9.27;;;6.97;;
11582;SDS011;34299;50.820;4.548;2023-03-19T04:43:20;9.43;;;5.67;;
11582;SDS011;34299;50.820;4.548;2023-03-19T04:45:48;9.53;;;5.90;;
11582;SDS011;34299;50.820;4.548;2023-03-19T04:48:16;8.67;;;5.30;;
11582;SDS011;34299;50.820;4.548;2023-03-19T04:50:43;7.63;;;5.43;;
11582;SDS011;34299;50.820;4.548;2023-03-19T04:53:11;7.23;;;5.27;;
11582;SDS011;34299;50.820;4.548;2023-03-19T04:55:38;9.70;;;5.53;;
11582;SDS011;34299;50.820;4.548;2023-03-19T04:58:06;7.93;;;5.33;;
11582;SDS011;34299;50.820;4.548;2023-03-19T05:00:35;6.23;;;4.67;;
11582;SDS011;34299;50.820;4.548;2023-03-19T05:03:03;8.23;;;5.10;;
11582;SDS011;34299;50.820;4.548;2023-03-19T05:05:31;5.63;;;4.53;;
11582;SDS011;34299;50.820;4.548;2023-03-19T05:07:58;8.13;;;5.23;;
11582;SDS011;34299;50.820;4.548;2023-03-19T05:10:26;10.33;;;5.40;;
11582;SDS011;34299;50.820;4.548;2023-03-19T05:12:53;7.57;;;4.97;;
11582;SDS011;34299;50.820;4.548;2023-03-19T05:15:20;9.47;;;5.90;;
11582;SDS011;34299;50.820;4.548;2023-03-19T05:17:47;11.63;;;6.43;;
11582;SDS011;34299;50.820;4.548;2023-03-19T05:20:16;7.63;;;5.13;;
11582;SDS011;34299;50.820;4.548;2023-03-19T05:22:44;7.90;;;5.70;;
11582;SDS011;34299;50.820;4.548;2023-03-19T05:25:11;8.87;;;5.20;;
11582;SDS011;34299;50.820;4.548;2023-03-19T05:27:39;11.60;;;6.30;;
11582;SDS011;34299;50.820;4.548;2023-03-19T05:30:06;7.10;;;4.60;;
11582;SDS011;34299;50.820;4.548;2023-03-19T05:32:34;9.53;;;5.27;;
11582;SDS011;34299;50.820;4.548;2023-03-19T05:35:01;7.23;;;5.00;;
11582;SDS011;34299;50.820;4.548;2023-03-19T05:37:31;7.53;;;4.83;;
11582;SDS011;34299;50.820;4.548;2023-03-19T05:39:58;8.77;;;5.53;;
11582;SDS011;34299;50.820;4.548;2023-03-19T05:42:25;8.83;;;4.80;;
11582;SDS011;34299;50.820;4.548;2023-03-19T05:44:53;6.87;;;4.03;;
11582;SDS011;34299;50.820;4.548;2023-03-19T05:47:20;6.70;;;4.20;;
11582;SDS011;34299;50.820;4.548;2023-03-19T05:49:47;7.27;;;4.57;;
11582;SDS011;34299;50.820;4.548;2023-03-19T05:52:14;8.13;;;4.17;;
11582;SDS011;34299;50.820;4.548;2023-03-19T05:54:43;6.83;;;4.63;;
11582;SDS011;34299;50.820;4.548;2023-03-19T05:57:13;6.53;;;4.07;;
11582;SDS011;34299;50.820;4.548;2023-03-19T05:59:41;8.07;;;4.67;;
11582;SDS011;34299;50.820;4.548;2023-03-19T06:02:08;5.23;;;3.90;;
11582;SDS011;34299;50.820;4.548;2023-03-19T06:04:35;6.07;;;4.00;;
11582;SDS011;34299;50.820;4.548;2023-03-19T06:07:03;9.67;;;3.57;;
11582;SDS011;34299;50.820;4.548;2023-03-19T06:09:30;5.87;;;3.60;;
11582;SDS011;34299;50.820;4.548;2023-03-19T06:11:58;7.80;;;4.77;;
11582;SDS011;34299;50.820;4.548;2023-03-19T06:14:26;5.03;;;3.80;;
11582;SDS011;34299;50.820;4.548;2023-03-19T06:16:53;6.93;;;3.90;;
11582;SDS011;34299;50.820;4.548;2023-03-19T06:19:20;8.27;;;4.33;;
11582;SDS011;34299;50.820;4.548;2023-03-19T06:21:47;4.17;;;3.03;;
11582;SDS011;34299;50.820;4.548;2023-03-19T06:24:15;6.80;;;3.80;;
11582;SDS011;34299;50.820;4.548;2023-03-19T06:26:42;6.27;;;3.80;;
11582;SDS011;34299;50.820;4.548;2023-03-19T06:29:10;9.10;;;4.00;;
11582;SDS011;34299;50.820;4.548;2023-03-19T06:31:38;8.37;;;3.90;;
11582;SDS011;34299;50.820;4.548;2023-03-19T06:34:05;7.80;;;4.10;;
11582;SDS011;34299;50.820;4.548;2023-03-19T06:36:33;8.53;;;3.57;;
11582;SDS011;34299;50.820;4.548;2023-03-19T06:39:00;7.63;;;3.80;;
11582;SDS011;34299;50.820;4.548;2023-03-19T06:41:27;4.83;;;3.63;;
11582;SDS011;34299;50.820;4.548;2023-03-19T06:43:54;8.60;;;3.60;;
11582;SDS011;34299;50.820;4.548;2023-03-19T06:46:23;7.90;;;4.17;;
11582;SDS011;34299;50.820;4.548;2023-03-19T06:48:50;9.73;;;4.13;;
11582;SDS011;34299;50.820;4.548;2023-03-19T06:51:18;6.43;;;4.10;;
11582;SDS011;34299;50.820;4.548;2023-03-19T06:53:45;11.33;;;4.60;;
11582;SDS011;34299;50.820;4.548;2023-03-19T06:56:12;5.83;;;4.00;;
11582;SDS011;34299;50.820;4.548;2023-03-19T06:58:39;7.63;;;3.60;;
11582;SDS011;34299;50.820;4.548;2023-03-19T07:01:07;9.03;;;4.10;;
11582;SDS011;34299;50.820;4.548;2023-03-19T07:03:35;7.67;;;4.80;;
11582;SDS011;34299;50.820;4.548;2023-03-19T07:06:03;8.67;;;4.23;;
11582;SDS011;34299;50.820;4.548;2023-03-19T07:08:31;5.67;;;4.17;;
11582;SDS011;34299;50.820;4.548;2023-03-19T07:11:01;7.53;;;5.10;;
11582;SDS011;34299;50.820;4.548;2023-03-19T07:13:29;9.17;;;5.33;;
11582;SDS011;34299;50.820;4.548;2023-03-19T07:15:57;11.97;;;5.10;;
11582;SDS011;34299;50.820;4.548;2023-03-19T07:18:24;6.07;;;4.60;;
11582;SDS011;34299;50.820;4.548;2023-03-19T07:20:52;6.93;;;4.47;;
11582;SDS011;34299;50.820;4.548;2023-03-19T07:23:20;9.73;;;5.23;;
11582;SDS011;34299;50.820;4.548;2023-03-19T07:25:47;12.60;;;5.47;;
11582;SDS011;34299;50.820;4.548;2023-03-19T07:28:14;10.27;;;6.50;;
11582;SDS011;34299;50.820;4.548;2023-03-19T07:30:42;10.63;;;5.63;;
11582;SDS011;34299;50.820;4.548;2023-03-19T07:33:09;9.30;;;5.20;;
11582;SDS011;34299;50.820;4.548;2023-03-19T07:35:36;8.00;;;5.40;;
11582;SDS011;34299;50.820;4.548;2023-03-19T07:38:05;9.80;;;5.93;;
11582;SDS011;34299;50.820;4.548;2023-03-19T07:40:32;11.27;;;5.30;;
11582;SDS011;34299;50.820;4.548;2023-03-19T07:42:59;11.67;;;5.87;;
11582;SDS011;34299;50.820;4.548;2023-03-19T07:45:27;7.97;;;5.93;;
11582;SDS011;34299;50.820;4.548;2023-03-19T07:47:54;10.37;;;5.87;;
11582;SDS011;34299;50.820;4.548;2023-03-19T07:50:21;13.73;;;4.87;;
11582;SDS011;34299;50.820;4.548;2023-03-19T07:52:48;11.13;;;4.10;;
11582;SDS011;34299;50.820;4.548;2023-03-19T07:55:17;8.60;;;4.87;;
11582;SDS011;34299;50.820;4.548;2023-03-19T07:57:45;8.20;;;4.17;;
11582;SDS011;34299;50.820;4.548;2023-03-19T08:00:12;6.83;;;3.10;;
11582;SDS011;34299;50.820;4.548;2023-03-19T08:02:40;7.63;;;3.57;;
11582;SDS011;34299;50.820;4.548;2023-03-19T08:05:08;8.10;;;5.40;;
11582;SDS011;34299;50.820;4.548;2023-03-19T08:07:35;11.70;;;4.00;;
11582;SDS011;34299;50.820;4.548;2023-03-19T08:10:03;10.43;;;4.33;;
11582;SDS011;34299;50.820;4.548;2023-03-19T08:12:32;7.87;;;4.40;;
11582;SDS011;34299;50.820;4.548;2023-03-19T08:15:06;10.57;;;3.40;;
11582;SDS011;34299;50.820;4.548;2023-03-19T08:17:33;7.90;;;3.17;;
11582;SDS011;34299;50.820;4.548;2023-03-19T08:20:03;11.50;;;3.30;;
11582;SDS011;34299;50.820;4.548;2023-03-19T08:22:30;10.20;;;3.57;;
11582;SDS011;34299;50.820;4.548;2023-03-19T08:24:57;9.30;;;3.27;;
11582;SDS011;34299;50.820;4.548;2023-03-19T08:27:24;7.80;;;3.07;;
11582;SDS011;34299;50.820;4.548;2023-03-19T08:29:55;5.57;;;3.00;;
11582;SDS011;34299;50.820;4.548;2023-03-19T08:32:23;9.07;;;3.33;;
11582;SDS011;34299;50.820;4.548;2023-03-19T08:34:50;5.50;;;2.73;;
11582;SDS011;34299;50.820;4.548;2023-03-19T08:37:17;9.33;;;2.93;;
11582;SDS011;34299;50.820;4.548;2023-03-19T08:39:45;7.47;;;2.60;;
11582;SDS011;34299;50.820;4.548;2023-03-19T08:42:12;5.77;;;3.13;;
11582;SDS011;34299;50.820;4.548;2023-03-19T08:44:39;11.43;;;2.80;;
11582;SDS011;34299;50.820;4.548;2023-03-19T08:47:08;11.37;;;2.93;;
11582;SDS011;34299;50.820;4.548;2023-03-19T08:49:36;8.03;;;2.80;;
11582;SDS011;34299;50.820;4.548;2023-03-19T08:52:03;5.90;;;2.57;;
11582;SDS011;34299;50.820;4.548;2023-03-19T08:54:31;9.93;;;2.33;;
11582;SDS011;34299;50.820;4.548;2023-03-19T08:56:58;5.67;;;2.10;;
11582;SDS011;34299;50.820;4.548;2023-03-19T08:59:27;4.00;;;2.33;;
11582;SDS011;34299;50.820;4.548;2023-03-19T09:01:55;6.53;;;2.57;;
11582;SDS011;34299;50.820;4.548;2023-03-19T09:04:23;5.20;;;2.80;;
11582;SDS011;34299;50.820;4.548;2023-03-19T09:06:51;6.80;;;2.57;;
11582;SDS011;34299;50.820;4.548;2023-03-19T09:09:18;8.77;;;2.83;;
11582;SDS011;34299;50.820;4.548;2023-03-19T09:11:45;3.67;;;2.23;;
11582;SDS011;34299;50.820;4.548;2023-03-19T09:14:12;4.33;;;2.07;;
11582;SDS011;34299;50.820;4.548;2023-03-19T09:16:40;5.13;;;2.10;;
11582;SDS011;34299;50.820;4.548;2023-03-19T09:19:08;7.77;;;2.10;;
11582;SDS011;34299;50.820;4.548;2023-03-19T09:21:36;3.30;;;1.70;;
11582;SDS011;34299;50.820;4.548;2023-03-19T09:24:04;6.17;;;2.03;;
11582;SDS011;34299;50.820;4.548;2023-03-19T09:26:31;5.77;;;1.63;;
11582;SDS011;34299;50.820;4.548;2023-03-19T09:28:58;9.07;;;2.27;;
11582;SDS011;34299;50.820;4.548;2023-03-19T09:31:26;4.03;;;1.83;;
11582;SDS011;34299;50.820;4.548;2023-03-19T09:33:53;6.17;;;2.30;;
11582;SDS011;34299;50.820;4.548;2023-03-19T09:36:20;5.87;;;2.00;;
11582;SDS011;34299;50.820;4.548;2023-03-19T09:38:49;6.37;;;2.27;;
11582;SDS011;34299;50.820;4.548;2023-03-19T09:41:18;7.33;;;1.80;;
11582;SDS011;34299;50.820;4.548;2023-03-19T09:43:57;7.50;;;1.90;;
11582;SDS011;34299;50.820;4.548;2023-03-19T09:46:27;6.23;;;1.97;;
11582;SDS011;34299;50.820;4.548;2023-03-19T09:48:56;5.37;;;2.73;;
11582;SDS011;34299;50.820;4.548;2023-03-19T09:51:25;5.67;;;2.10;;
11582;SDS011;34299;50.820;4.548;2023-03-19T09:53:57;4.57;;;2.07;;
11582;SDS011;34299;50.820;4.548;2023-03-19T09:56:26;6.70;;;2.00;;
11582;SDS011;34299;50.820;4.548;2023-03-19T09:58:53;6.07;;;2.10;;
11582;SDS011;34299;50.820;4.548;2023-03-19T10:01:22;7.70;;;2.17;;
11582;SDS011;34299;50.820;4.548;2023-03-19T10:03:57;6.53;;;1.77;;
11582;SDS011;34299;50.820;4.548;2023-03-19T10:06:27;7.13;;;2.20;;
11582;SDS011;34299;50.820;4.548;2023-03-19T10:09:08;4.77;;;2.20;;
11582;SDS011;34299;50.820;4.548;2023-03-19T10:11:43;5.00;;;1.77;;
11582;SDS011;34299;50.820;4.548;2023-03-19T10:14:24;3.77;;;2.40;;
11582;SDS011;34299;50.820;4.548;2023-03-19T10:16:54;8.13;;;2.47;;
11582;SDS011;34299;50.820;4.548;2023-03-19T10:19:29;2.70;;;2.00;;
11582;SDS011;34299;50.820;4.548;2023-03-19T10:21:58;7.20;;;2.63;;
11582;SDS011;34299;50.820;4.548;2023-03-19T10:24:29;4.53;;;1.63;;
11582;SDS011;34299;50.820;4.548;2023-03-19T10:26:58;6.33;;;2.47;;
11582;SDS011;34299;50.820;4.548;2023-03-19T10:29:27;2.60;;;1.70;;
11582;SDS011;34299;50.820;4.548;2023-03-19T10:31:56;8.57;;;2.80;;
11582;SDS011;34299;50.820;4.548;2023-03-19T10:34:28;7.53;;;2.10;;
11582;SDS011;34299;50.820;4.548;2023-03-19T10:36:57;3.77;;;1.93;;
11582;SDS011;34299;50.820;4.548;2023-03-19T10:39:25;5.97;;;2.00;;
11582;SDS011;34299;50.820;4.548;2023-03-19T10:41:56;4.33;;;2.07;;
11582;SDS011;34299;50.820;4.548;2023-03-19T10:44:27;3.47;;;1.77;;
11582;SDS011;34299;50.820;4.548;2023-03-19T10:46:58;7.43;;;2.47;;
11582;SDS011;34299;50.820;4.548;2023-03-19T10:49:25;7.47;;;2.03;;
11582;SDS011;34299;50.820;4.548;2023-03-19T10:51:54;5.70;;;1.93;;
11582;SDS011;34299;50.820;4.548;2023-03-19T10:54:23;8.73;;;2.37;;
11582;SDS011;34299;50.820;4.548;2023-03-19T10:56:54;5.30;;;2.13;;
11582;SDS011;34299;50.820;4.548;2023-03-19T10:59:23;7.10;;;2.40;;
11582;SDS011;34299;50.820;4.548;2023-03-19T11:01:54;4.07;;;1.60;;
11582;SDS011;34299;50.820;4.548;2023-03-19T11:04:22;6.00;;;1.90;;
11582;SDS011;34299;50.820;4.548;2023-03-19T11:06:50;6.73;;;1.80;;
11582;SDS011;34299;50.820;4.548;2023-03-19T11:09:20;6.23;;;1.60;;
11582;SDS011;34299;50.820;4.548;2023-03-19T11:11:49;4.73;;;1.47;;
11582;SDS011;34299;50.820;4.548;2023-03-19T11:14:19;9.70;;;4.00;;
11582;SDS011;34299;50.820;4.548;2023-03-19T11:16:47;6.57;;;2.03;;
11582;SDS011;34299;50.820;4.548;2023-03-19T11:19:16;4.53;;;1.90;;
11582;SDS011;34299;50.820;4.548;2023-03-19T11:21:51;2.90;;;1.97;;
11582;SDS011;34299;50.820;4.548;2023-03-19T11:24:19;5.17;;;1.80;;
11582;SDS011;34299;50.820;4.548;2023-03-19T11:26:51;4.37;;;2.07;;
11582;SDS011;34299;50.820;4.548;2023-03-19T11:29:21;6.03;;;2.00;;
11582;SDS011;34299;50.820;4.548;2023-03-19T11:31:50;3.87;;;1.73;;
11582;SDS011;34299;50.820;4.548;2023-03-19T11:34:22;7.03;;;2.10;;
11582;SDS011;34299;50.820;4.548;2023-03-19T11:36:54;4.07;;;1.90;;
11582;SDS011;34299;50.820;4.548;2023-03-19T11:39:25;6.57;;;1.93;;
11582;SDS011;34299;50.820;4.548;2023-03-19T11:42:08;4.60;;;2.07;;
11582;SDS011;34299;50.820;4.548;2023-03-19T11:44:41;7.37;;;2.53;;
11582;SDS011;34299;50.820;4.548;2023-03-19T11:47:14;5.33;;;1.90;;
11582;SDS011;34299;50.820;4.548;2023-03-19T11:49:48;6.50;;;2.30;;
11582;SDS011;34299;50.820;4.548;2023-03-19T11:52:22;5.07;;;2.00;;
11582;SDS011;34299;50.820;4.548;2023-03-19T11:55:02;4.43;;;2.30;;
11582;SDS011;34299;50.820;4.548;2023-03-19T11:57:40;4.30;;;1.83;;
11582;SDS011;34299;50.820;4.548;2023-03-19T12:00:14;5.70;;;2.93;;
11582;SDS011;34299;50.820;4.548;2023-03-19T12:02:55;4.87;;;2.20;;
11582;SDS011;34299;50.820;4.548;2023-03-19T12:05:28;7.03;;;3.13;;
11582;SDS011;34299;50.820;4.548;2023-03-19T12:10:46;5.17;;;3.37;;
11582;SDS011;34299;50.820;4.548;2023-03-19T12:13:20;4.97;;;3.57;;
11582;SDS011;34299;50.820;4.548;2023-03-19T12:15:53;5.83;;;3.53;;
11582;SDS011;34299;50.820;4.548;2023-03-19T12:18:23;8.20;;;3.83;;
11582;SDS011;34299;50.820;4.548;2023-03-19T12:20:55;6.77;;;4.00;;
11582;SDS011;34299;50.820;4.548;2023-03-19T12:23:31;5.20;;;4.00;;
11582;SDS011;34299;50.820;4.548;2023-03-19T12:26:01;8.03;;;3.30;;
11582;SDS011;34299;50.820;4.548;2023-03-19T12:28:33;4.77;;;3.07;;
11582;SDS011;34299;50.820;4.548;2023-03-19T12:31:12;6.97;;;2.90;;
11582;SDS011;34299;50.820;4.548;2023-03-19T12:33:44;6.03;;;3.63;;
11582;SDS011;34299;50.820;4.548;2023-03-19T12:36:16;5.10;;;3.70;;
11582;SDS011;34299;50.820;4.548;2023-03-19T12:38:45;7.87;;;3.27;;
11582;SDS011;34299;50.820;4.548;2023-03-19T12:41:16;7.10;;;3.27;;
11582;SDS011;34299;50.820;4.548;2023-03-19T12:43:45;5.03;;;3.50;;
11582;SDS011;34299;50.820;4.548;2023-03-19T12:46:17;6.20;;;3.43;;
11582;SDS011;34299;50.820;4.548;2023-03-19T12:48:47;5.67;;;2.83;;
11582;SDS011;34299;50.820;4.548;2023-03-19T12:51:16;6.83;;;2.23;;
11582;SDS011;34299;50.820;4.548;2023-03-19T12:53:46;3.27;;;3.00;;
11582;SDS011;34299;50.820;4.548;2023-03-19T12:56:15;5.53;;;3.10;;
11582;SDS011;34299;50.820;4.548;2023-03-19T12:58:47;6.33;;;2.80;;
11582;SDS011;34299;50.820;4.548;2023-03-19T13:01:19;6.03;;;2.97;;
11582;SDS011;34299;50.820;4.548;2023-03-19T13:03:50;8.07;;;2.80;;
11582;SDS011;34299;50.820;4.548;2023-03-19T13:06:22;4.17;;;2.73;;
11582;SDS011;34299;50.820;4.548;2023-03-19T13:08:51;6.33;;;3.27;;
11582;SDS011;34299;50.820;4.548;2023-03-19T13:11:20;7.03;;;3.97;;
11582;SDS011;34299;50.820;4.548;2023-03-19T13:13:52;5.80;;;3.67;;
11582;SDS011;34299;50.820;4.548;2023-03-19T13:16:29;7.83;;;3.43;;
11582;SDS011;34299;50.820;4.548;2023-03-19T13:18:58;7.20;;;3.80;;
11582;SDS011;34299;50.820;4.548;2023-03-19T13:21:29;4.73;;;3.33;;
11582;SDS011;34299;50.820;4.548;2023-03-19T13:23:59;3.93;;;3.30;;
11582;SDS011;34299;50.820;4.548;2023-03-19T13:26:28;6.33;;;4.03;;
11582;SDS011;34299;50.820;4.548;2023-03-19T13:28:58;6.43;;;3.13;;
11582;SDS011;34299;50.820;4.548;2023-03-19T13:31:30;6.27;;;4.00;;
11582;SDS011;34299;50.820;4.548;2023-03-19T13:34:00;5.90;;;2.80;;
11582;SDS011;34299;50.820;4.548;2023-03-19T13:36:28;3.57;;;2.13;;
11582;SDS011;34299;50.820;4.548;2023-03-19T13:38:56;6.57;;;2.73;;
11582;SDS011;34299;50.820;4.548;2023-03-19T13:44:17;2.40;;;2.20;;
11582;SDS011;34299;50.820;4.548;2023-03-19T13:46:51;6.93;;;2.83;;
11582;SDS011;34299;50.820;4.548;2023-03-19T13:49:28;7.67;;;3.00;;
11582;SDS011;34299;50.820;4.548;2023-03-19T13:51:58;8.30;;;3.50;;
11582;SDS011;34299;50.820;4.548;2023-03-19T13:54:31;7.27;;;3.50;;
11582;SDS011;34299;50.820;4.548;2023-03-19T13:57:03;6.67;;;3.60;;
11582;SDS011;34299;50.820;4.548;2023-03-19T13:59:33;7.03;;;4.30;;
11582;SDS011;34299;50.820;4.548;2023-03-19T14:02:02;6.70;;;4.57;;
11582;SDS011;34299;50.820;4.548;2023-03-19T14:04:30;7.00;;;4.27;;
11582;SDS011;34299;50.820;4.548;2023-03-19T14:07:05;7.60;;;4.97;;
11582;SDS011;34299;50.820;4.548;2023-03-19T14:09:36;11.17;;;6.47;;
11582;SDS011;34299;50.820;4.548;2023-03-19T14:12:18;9.60;;;5.50;;
11582;SDS011;34299;50.820;4.548;2023-03-19T14:14:47;7.80;;;5.17;;
11582;SDS011;34299;50.820;4.548;2023-03-19T14:17:18;6.40;;;4.53;;
11582;SDS011;34299;50.820;4.548;2023-03-19T14:19:46;8.73;;;4.77;;
11582;SDS011;34299;50.820;4.548;2023-03-19T14:22:18;5.83;;;4.70;;
11582;SDS011;34299;50.820;4.548;2023-03-19T14:24:53;8.33;;;4.50;;
11582;SDS011;34299;50.820;4.548;2023-03-19T14:27:21;6.23;;;4.30;;
11582;SDS011;34299;50.820;4.548;2023-03-19T14:29:51;6.77;;;4.40;;
11582;SDS011;34299;50.820;4.548;2023-03-19T14:32:23;9.30;;;4.70;;
11582;SDS011;34299;50.820;4.548;2023-03-19T14:34:51;6.07;;;3.73;;
11582;SDS011;34299;50.820;4.548;2023-03-19T14:37:20;8.57;;;4.07;;
11582;SDS011;34299;50.820;4.548;2023-03-19T14:39:49;7.27;;;4.40;;
11582;SDS011;34299;50.820;4.548;2023-03-19T14:42:19;5.73;;;3.63;;
11582;SDS011;34299;50.820;4.548;2023-03-19T14:47:44;4.27;;;2.87;;
11582;SDS011;34299;50.820;4.548;2023-03-19T14:50:26;5.40;;;3.30;;
11582;SDS011;34299;50.820;4.548;2023-03-19T14:52:57;7.03;;;2.77;;
11582;SDS011;34299;50.820;4.548;2023-03-19T14:55:31;5.53;;;3.03;;
11582;SDS011;34299;50.820;4.548;2023-03-19T14:57:59;4.67;;;3.17;;
11582;SDS011;34299;50.820;4.548;2023-03-19T15:00:26;4.43;;;3.07;;
11582;SDS011;34299;50.820;4.548;2023-03-19T15:02:55;6.47;;;3.90;;
11582;SDS011;34299;50.820;4.548;2023-03-19T15:05:24;6.13;;;3.80;;